createdAt,value
2018-08-22T00:01:36.084Z,99.90
2018-08-22T00:07:41.143Z,99.90
2018-08-22T00:13:45.856Z,99.90
2018-08-22T00:19:50.596Z,99.90
2018-08-22T00:25:55.340Z,99.90
2018-08-22T00:31:59.978Z,99.90
2018-08-22T00:38:04.862Z,99.90
2018-08-22T00:44:10.134Z,99.90
2018-08-22T00:50:14.900Z,99.90
2018-08-22T00:56:19.965Z,99.90
2018-08-22T01:02:24.659Z,99.90
2018-08-22T01:08:29.843Z,99.90
2018-08-22T01:14:34.537Z,99.90
2018-08-22T01:20:40.041Z,99.90
2018-08-22T01:26:45.030Z,99.90
2018-08-22T01:32:49.686Z,99.90
2018-08-22T01:38:54.407Z,99.90
2018-08-22T01:44:59.135Z,99.90
2018-08-22T01:51:03.860Z,99.90
2018-08-22T01:57:09.120Z,99.90
2018-08-22T02:03:13.852Z,99.90
2018-08-22T02:09:18.494Z,99.90
2018-08-22T02:15:23.140Z,99.90
2018-08-22T02:21:28.059Z,99.90
2018-08-22T02:27:32.762Z,99.90
2018-08-22T02:33:37.465Z,99.90
2018-08-22T02:39:42.321Z,99.90
2018-08-22T02:45:47.147Z,99.90
2018-08-22T02:51:51.751Z,99.90
2018-08-22T02:57:56.454Z,99.90
2018-08-22T03:04:01.464Z,99.90
2018-08-22T03:10:06.459Z,99.90
2018-08-22T03:16:11.607Z,99.90
2018-08-22T03:22:17.061Z,99.90
2018-08-22T03:28:21.762Z,99.90
2018-08-22T03:34:26.545Z,99.90
2018-08-22T03:40:31.440Z,99.90
2018-08-22T03:46:36.231Z,99.90
2018-08-22T03:52:41.233Z,99.90
2018-08-22T03:58:45.980Z,99.90
2018-08-22T04:04:50.935Z,99.90
2018-08-22T04:10:55.642Z,99.90
2018-08-22T04:17:00.326Z,99.90
2018-08-22T04:23:05.210Z,99.90
2018-08-22T04:29:10.372Z,99.90
2018-08-22T04:35:15.390Z,99.90
2018-08-22T04:41:20.075Z,99.90
2018-08-22T04:47:24.924Z,99.90
2018-08-22T04:53:29.757Z,99.90
2018-08-22T04:59:34.624Z,99.90
2018-08-22T05:05:39.499Z,99.90
2018-08-22T05:11:44.231Z,99.90
2018-08-22T05:17:48.862Z,99.90
2018-08-22T05:23:53.549Z,99.90
2018-08-22T05:29:58.265Z,99.90
2018-08-22T05:36:02.900Z,99.90
2018-08-22T05:42:08.178Z,99.90
2018-08-22T05:48:13.705Z,99.90
2018-08-22T05:54:19.020Z,99.90
2018-08-22T06:00:23.858Z,99.90
2018-08-22T06:06:28.653Z,99.90
2018-08-22T06:12:33.673Z,99.90
2018-08-22T06:18:39.150Z,99.90
2018-08-22T06:24:43.923Z,99.90
2018-08-22T06:30:48.760Z,99.90
2018-08-22T06:36:53.434Z,99.90
2018-08-22T06:42:58.378Z,99.90
2018-08-22T06:49:03.112Z,99.90
2018-08-22T06:55:08.507Z,99.90
2018-08-22T07:01:14.169Z,99.90
2018-08-22T07:07:19.605Z,99.00
2018-08-22T07:13:24.497Z,96.00
2018-08-22T07:19:29.410Z,96.00
2018-08-22T07:25:34.331Z,96.30
2018-08-22T07:31:39.779Z,97.20
2018-08-22T07:37:44.565Z,97.50
2018-08-22T07:43:49.412Z,97.30
2018-08-22T07:49:54.164Z,96.60
2018-08-22T07:55:58.948Z,95.90
2018-08-22T08:02:03.749Z,95.40
2018-08-22T08:08:08.657Z,94.90
2018-08-22T08:14:13.836Z,93.30
2018-08-22T08:20:18.980Z,93.60
2018-08-22T08:26:23.722Z,92.00
2018-08-22T08:32:28.505Z,91.30
2018-08-22T08:38:33.296Z,90.00
2018-08-22T08:44:38.516Z,88.80
2018-08-22T08:50:43.787Z,86.80
2018-08-22T08:56:48.612Z,84.00
2018-08-22T09:02:53.285Z,82.30
2018-08-22T09:08:57.964Z,79.50
2018-08-22T09:15:02.822Z,77.10
2018-08-22T09:21:07.955Z,74.90
2018-08-22T09:27:13.075Z,70.50
2018-08-22T09:33:18.757Z,67.90
2018-08-22T09:39:23.796Z,68.50
2018-08-22T09:45:28.735Z,67.20
2018-08-22T09:51:33.730Z,62.80
2018-08-22T09:57:38.735Z,64.20
2018-08-22T10:04:00.120Z,61.30
2018-08-22T10:10:05.183Z,58.40
2018-08-22T10:16:11.810Z,57.00
2018-08-22T10:22:16.621Z,56.30
2018-08-22T10:28:21.364Z,54.70
2018-08-22T10:34:26.048Z,52.30
2018-08-22T10:40:31.934Z,49.50
2018-08-22T10:46:37.109Z,47.20
2018-08-22T10:52:42.960Z,46.20
2018-08-22T10:58:47.807Z,44.90
2018-08-22T11:04:52.518Z,42.90
2018-08-22T11:10:57.567Z,42.40
2018-08-22T11:17:02.314Z,41.20
2018-08-22T11:23:24.361Z,40.50
2018-08-22T11:29:46.582Z,38.00
2018-08-22T11:35:49.436Z,37.60
2018-08-22T11:41:54.209Z,36.80
2018-08-22T11:47:59.126Z,34.60
2018-08-22T11:54:04.075Z,33.60
2018-08-22T12:00:10.059Z,33.40
2018-08-22T12:06:14.787Z,33.40
2018-08-22T12:12:20.074Z,33.30
2018-08-22T12:18:24.768Z,33.60
2018-08-22T12:24:30.096Z,33.40
2018-08-22T12:30:34.858Z,32.20
2018-08-22T12:36:39.737Z,33.80
2018-08-22T12:42:44.428Z,34.10
2018-08-22T12:48:49.513Z,36.00
2018-08-22T12:54:54.533Z,38.40
2018-08-22T13:00:59.383Z,37.20
2018-08-22T13:07:04.255Z,35.60
2018-08-22T13:13:09.575Z,35.40
2018-08-22T13:19:14.350Z,36.50
2018-08-22T13:25:19.243Z,35.40
2018-08-22T13:31:24.353Z,36.20
2018-08-22T13:37:29.084Z,37.20
2018-08-22T13:43:33.921Z,35.20
2018-08-22T13:49:39.318Z,33.10
2018-08-22T13:55:44.656Z,32.80
2018-08-22T14:01:49.766Z,32.20
2018-08-22T14:07:54.674Z,31.80
2018-08-22T14:13:59.833Z,34.60
2018-08-22T14:20:04.670Z,34.70
2018-08-22T14:26:09.658Z,33.10
2018-08-22T14:32:14.660Z,32.40
2018-08-22T14:38:19.670Z,31.30
2018-08-22T14:44:24.700Z,30.80
2018-08-22T14:50:29.763Z,29.80
2018-08-22T14:56:34.808Z,29.70
2018-08-22T15:02:39.749Z,30.10
2018-08-22T15:08:44.621Z,30.20
2018-08-22T15:14:49.612Z,30.00
2018-08-22T15:20:54.582Z,30.00
2018-08-22T15:26:59.583Z,29.10
2018-08-22T15:33:04.715Z,28.50
2018-08-22T15:39:11.200Z,28.30
2018-08-22T15:45:16.199Z,28.60
2018-08-22T15:51:21.233Z,28.40
2018-08-22T15:57:26.312Z,28.00
2018-08-22T16:03:31.266Z,28.00
2018-08-22T16:09:36.001Z,28.30
2018-08-22T16:15:40.714Z,30.00
2018-08-22T16:21:45.553Z,29.80
2018-08-22T16:27:51.363Z,31.00
2018-08-22T16:33:56.047Z,29.80
2018-08-22T16:40:01.005Z,29.80
2018-08-22T16:46:08.883Z,32.20
2018-08-22T16:52:13.520Z,32.40
2018-08-22T16:58:18.579Z,34.60
2018-08-22T17:04:23.534Z,33.00
2018-08-22T17:10:48.227Z,33.30
2018-08-22T17:16:52.867Z,33.50
2018-08-22T17:22:57.497Z,33.70
2018-08-22T17:29:02.346Z,34.80
2018-08-22T17:35:07.151Z,35.80
2018-08-22T17:41:11.826Z,36.60
2018-08-22T17:47:16.432Z,38.00
2018-08-22T17:53:21.054Z,40.80
2018-08-22T17:59:25.786Z,43.20
2018-08-22T18:05:32.975Z,43.90
2018-08-22T18:11:37.953Z,45.30
2018-08-22T18:17:42.957Z,46.90
2018-08-22T18:23:55.007Z,47.90
2018-08-22T18:29:59.671Z,50.10
2018-08-22T18:36:04.341Z,51.50
2018-08-22T18:42:09.011Z,52.30
2018-08-22T18:48:13.643Z,53.00
2018-08-22T18:54:18.520Z,54.40
2018-08-22T19:00:23.478Z,55.00
2018-08-22T19:06:28.389Z,56.10
2018-08-22T19:12:33.307Z,56.40
2018-08-22T19:18:38.172Z,57.00
2018-08-22T19:24:57.588Z,58.00
2018-08-22T19:31:02.053Z,58.60
2018-08-22T19:37:06.670Z,58.60
2018-08-22T19:43:11.270Z,59.80
2018-08-22T19:49:15.869Z,59.80
2018-08-22T19:55:20.424Z,60.90
2018-08-22T20:01:25.048Z,61.90
2018-08-22T20:07:29.680Z,60.40
2018-08-22T20:14:01.234Z,60.40
2018-08-22T20:20:06.695Z,61.20
2018-08-22T20:26:11.301Z,64.30
2018-08-22T20:32:21.003Z,66.20
2018-08-22T20:38:25.570Z,67.40
2018-08-22T20:44:30.239Z,66.70
2018-08-22T20:50:35.483Z,67.50
2018-08-22T20:56:48.674Z,68.40
2018-08-22T21:02:54.663Z,67.70
2018-08-22T21:08:59.209Z,67.90
2018-08-22T21:15:03.861Z,68.20
2018-08-22T21:21:12.525Z,67.60
2018-08-22T21:27:17.076Z,67.60
2018-08-22T21:33:21.682Z,68.20
2018-08-22T21:39:27.398Z,68.50
2018-08-22T21:45:32.016Z,67.60
2018-08-22T21:51:38.648Z,69.70
2018-08-22T21:57:43.225Z,69.40
2018-08-22T22:03:47.911Z,70.00
2018-08-22T22:09:57.262Z,69.50
2018-08-22T22:16:04.109Z,70.80
2018-08-22T22:22:08.719Z,71.20
2018-08-22T22:28:13.361Z,70.90
2018-08-22T22:34:17.952Z,71.70
2018-08-22T22:40:26.512Z,74.30
2018-08-22T22:46:31.141Z,75.30
2018-08-22T22:52:45.512Z,75.30
2018-08-22T22:58:50.107Z,76.80
2018-08-22T23:04:55.750Z,77.20
2018-08-22T23:11:00.320Z,77.20
2018-08-22T23:17:04.953Z,76.70
2018-08-22T23:23:35.694Z,78.00
2018-08-22T23:29:40.311Z,79.10
2018-08-22T23:35:44.875Z,80.30
2018-08-22T23:41:49.460Z,80.40
2018-08-22T23:47:54.115Z,80.50
2018-08-22T23:54:00.535Z,81.50
